sensor_id;sensor_type;location;lat;lon;timestamp;temperature;humidity
25138;DHT22;13112;50.986;4.354;2023-03-18T00:02:02;12.80;99.90
25138;DHT22;13112;50.986;4.354;2023-03-18T00:04:28;12.60;99.90
25138;DHT22;13112;50.986;4.354;2023-03-18T00:06:55;12.40;99.90
25138;DHT22;13112;50.986;4.354;2023-03-18T00:09:21;12.30;99.90
25138;DHT22;13112;50.986;4.354;2023-03-18T00:11:47;12.20;99.90
25138;DHT22;13112;50.986;4.354;2023-03-18T00:14:13;12.20;99.90
25138;DHT22;13112;50.986;4.354;2023-03-18T00:16:39;12.20;99.90
25138;DHT22;13112;50.986;4.354;2023-03-18T00:19:05;12.20;99.90
25138;DHT22;13112;50.986;4.354;2023-03-18T00:21:31;12.20;99.90
25138;DHT22;13112;50.986;4.354;2023-03-18T00:23:58;12.30;99.90
25138;DHT22;13112;50.986;4.354;2023-03-18T00:26:26;12.40;99.90
25138;DHT22;13112;50.986;4.354;2023-03-18T00:28:54;12.50;99.90
25138;DHT22;13112;50.986;4.354;2023-03-18T00:31:21;12.50;99.90
25138;DHT22;13112;50.986;4.354;2023-03-18T00:33:46;12.60;99.90
25138;DHT22;13112;50.986;4.354;2023-03-18T00:36:15;12.70;99.90
25138;DHT22;13112;50.986;4.354;2023-03-18T00:38:44;12.80;99.90
25138;DHT22;13112;50.986;4.354;2023-03-18T00:41:11;12.70;99.90
25138;DHT22;13112;50.986;4.354;2023-03-18T00:43:43;12.70;99.90
25138;DHT22;13112;50.986;4.354;2023-03-18T00:46:34;12.60;99.90
25138;DHT22;13112;50.986;4.354;2023-03-18T00:49:02;12.70;99.90
25138;DHT22;13112;50.986;4.354;2023-03-18T00:51:31;12.70;99.90
25138;DHT22;13112;50.986;4.354;2023-03-18T00:53:59;12.70;99.90
25138;DHT22;13112;50.986;4.354;2023-03-18T00:56:29;12.80;99.90
25138;DHT22;13112;50.986;4.354;2023-03-18T00:58:55;12.80;99.90
25138;DHT22;13112;50.986;4.354;2023-03-18T01:01:22;12.90;99.90
25138;DHT22;13112;50.986;4.354;2023-03-18T01:03:48;12.80;99.90
25138;DHT22;13112;50.986;4.354;2023-03-18T01:06:18;12.90;99.90
25138;DHT22;13112;50.986;4.354;2023-03-18T01:08:45;12.90;99.90
25138;DHT22;13112;50.986;4.354;2023-03-18T01:11:11;13.00;99.90
25138;DHT22;13112;50.986;4.354;2023-03-18T01:13:37;13.10;99.90
25138;DHT22;13112;50.986;4.354;2023-03-18T01:16:04;13.00;99.90
25138;DHT22;13112;50.986;4.354;2023-03-18T01:18:31;13.10;99.90
25138;DHT22;13112;50.986;4.354;2023-03-18T01:20:58;13.00;99.90
25138;DHT22;13112;50.986;4.354;2023-03-18T01:23:23;13.10;99.90
25138;DHT22;13112;50.986;4.354;2023-03-18T01:25:50;13.00;99.90
25138;DHT22;13112;50.986;4.354;2023-03-18T01:28:16;12.90;99.90
25138;DHT22;13112;50.986;4.354;2023-03-18T01:30:42;12.90;99.90
25138;DHT22;13112;50.986;4.354;2023-03-18T01:33:09;12.80;99.90
25138;DHT22;13112;50.986;4.354;2023-03-18T01:35:35;12.80;99.90
25138;DHT22;13112;50.986;4.354;2023-03-18T01:38:03;12.90;99.90
25138;DHT22;13112;50.986;4.354;2023-03-18T01:40:32;12.80;99.90
25138;DHT22;13112;50.986;4.354;2023-03-18T01:45:45;12.50;99.90
25138;DHT22;13112;50.986;4.354;2023-03-18T01:48:15;12.30;99.90
25138;DHT22;13112;50.986;4.354;2023-03-18T01:50:42;12.20;99.90
25138;DHT22;13112;50.986;4.354;2023-03-18T01:53:13;12.10;99.90
25138;DHT22;13112;50.986;4.354;2023-03-18T01:55:40;12.00;99.90
25138;DHT22;13112;50.986;4.354;2023-03-18T01:58:13;12.00;99.90
25138;DHT22;13112;50.986;4.354;2023-03-18T02:00:44;11.80;99.90
25138;DHT22;13112;50.986;4.354;2023-03-18T02:03:12;11.80;99.90
25138;DHT22;13112;50.986;4.354;2023-03-18T02:05:39;11.90;99.90
25138;DHT22;13112;50.986;4.354;2023-03-18T02:08:07;11.90;99.90
25138;DHT22;13112;50.986;4.354;2023-03-18T02:10:34;11.90;99.90
25138;DHT22;13112;50.986;4.354;2023-03-18T02:13:06;11.90;99.90
25138;DHT22;13112;50.986;4.354;2023-03-18T02:15:34;12.10;99.90
25138;DHT22;13112;50.986;4.354;2023-03-18T02:18:11;12.00;99.90
25138;DHT22;13112;50.986;4.354;2023-03-18T02:29:10;11.40;99.90
25138;DHT22;13112;50.986;4.354;2023-03-18T02:31:37;11.30;99.90
25138;DHT22;13112;50.986;4.354;2023-03-18T02:34:05;11.30;99.90
25138;DHT22;13112;50.986;4.354;2023-03-18T02:36:32;11.30;99.90
25138;DHT22;13112;50.986;4.354;2023-03-18T02:38:58;11.30;99.90
25138;DHT22;13112;50.986;4.354;2023-03-18T02:41:28;11.30;99.90
25138;DHT22;13112;50.986;4.354;2023-03-18T02:43:54;11.20;99.90
25138;DHT22;13112;50.986;4.354;2023-03-18T02:46:51;11.20;99.90
25138;DHT22;13112;50.986;4.354;2023-03-18T02:49:19;11.30;99.90
25138;DHT22;13112;50.986;4.354;2023-03-18T02:51:45;11.20;99.90
25138;DHT22;13112;50.986;4.354;2023-03-18T02:54:14;11.20;99.90
25138;DHT22;13112;50.986;4.354;2023-03-18T02:56:41;11.20;99.90
25138;DHT22;13112;50.986;4.354;2023-03-18T02:59:09;11.10;99.90
25138;DHT22;13112;50.986;4.354;2023-03-18T03:01:35;11.10;99.90
25138;DHT22;13112;50.986;4.354;2023-03-18T03:04:01;11.00;99.90
25138;DHT22;13112;50.986;4.354;2023-03-18T03:06:27;11.00;99.90
25138;DHT22;13112;50.986;4.354;2023-03-18T03:08:54;11.00;99.90
25138;DHT22;13112;50.986;4.354;2023-03-18T03:11:20;11.00;99.90
25138;DHT22;13112;50.986;4.354;2023-03-18T03:13:46;11.00;99.90
25138;DHT22;13112;50.986;4.354;2023-03-18T03:16:13;11.10;99.90
25138;DHT22;13112;50.986;4.354;2023-03-18T03:18:40;11.10;99.90
25138;DHT22;13112;50.986;4.354;2023-03-18T03:21:07;11.10;99.90
25138;DHT22;13112;50.986;4.354;2023-03-18T03:23:34;11.00;99.90
25138;DHT22;13112;50.986;4.354;2023-03-18T03:26:00;11.00;99.90
25138;DHT22;13112;50.986;4.354;2023-03-18T03:28:26;11.00;99.90
25138;DHT22;13112;50.986;4.354;2023-03-18T03:30:52;11.00;99.90
25138;DHT22;13112;50.986;4.354;2023-03-18T03:33:18;11.00;99.90
25138;DHT22;13112;50.986;4.354;2023-03-18T03:35:44;11.00;99.90
25138;DHT22;13112;50.986;4.354;2023-03-18T03:38:09;10.90;99.90
25138;DHT22;13112;50.986;4.354;2023-03-18T03:40:36;10.80;99.90
25138;DHT22;13112;50.986;4.354;2023-03-18T03:43:02;10.90;99.90
25138;DHT22;13112;50.986;4.354;2023-03-18T03:45:28;10.70;99.90
25138;DHT22;13112;50.986;4.354;2023-03-18T03:47:54;10.60;99.90
25138;DHT22;13112;50.986;4.354;2023-03-18T03:50:20;10.60;99.90
25138;DHT22;13112;50.986;4.354;2023-03-18T03:52:46;10.50;99.90
25138;DHT22;13112;50.986;4.354;2023-03-18T03:55:15;10.50;99.90
25138;DHT22;13112;50.986;4.354;2023-03-18T03:57:42;10.50;99.90
25138;DHT22;13112;50.986;4.354;2023-03-18T04:00:11;10.50;99.90
25138;DHT22;13112;50.986;4.354;2023-03-18T04:02:41;10.50;99.90
25138;DHT22;13112;50.986;4.354;2023-03-18T04:05:09;10.40;99.90
25138;DHT22;13112;50.986;4.354;2023-03-18T04:07:36;10.30;99.90
25138;DHT22;13112;50.986;4.354;2023-03-18T04:10:02;10.30;99.90
25138;DHT22;13112;50.986;4.354;2023-03-18T04:12:28;10.30;99.90
25138;DHT22;13112;50.986;4.354;2023-03-18T04:14:54;10.30;99.90
25138;DHT22;13112;50.986;4.354;2023-03-18T04:17:19;10.30;99.90
25138;DHT22;13112;50.986;4.354;2023-03-18T04:19:45;10.30;99.90
25138;DHT22;13112;50.986;4.354;2023-03-18T04:22:11;10.30;99.90
25138;DHT22;13112;50.986;4.354;2023-03-18T04:24:37;10.20;99.90
25138;DHT22;13112;50.986;4.354;2023-03-18T04:27:03;10.20;99.90
25138;DHT22;13112;50.986;4.354;2023-03-18T04:29:28;10.20;99.90
25138;DHT22;13112;50.986;4.354;2023-03-18T04:31:55;10.20;99.90
25138;DHT22;13112;50.986;4.354;2023-03-18T04:34:21;10.10;99.90
25138;DHT22;13112;50.986;4.354;2023-03-18T04:36:47;10.00;99.90
25138;DHT22;13112;50.986;4.354;2023-03-18T04:39:13;9.90;99.90
25138;DHT22;13112;50.986;4.354;2023-03-18T04:41:39;9.90;99.90
25138;DHT22;13112;50.986;4.354;2023-03-18T04:44:05;9.90;99.90
25138;DHT22;13112;50.986;4.354;2023-03-18T04:46:30;9.90;99.90
25138;DHT22;13112;50.986;4.354;2023-03-18T04:48:57;9.90;99.90
25138;DHT22;13112;50.986;4.354;2023-03-18T04:51:24;9.90;99.90
25138;DHT22;13112;50.986;4.354;2023-03-18T04:53:50;9.90;99.90
25138;DHT22;13112;50.986;4.354;2023-03-18T04:56:16;9.90;99.90
25138;DHT22;13112;50.986;4.354;2023-03-18T04:58:42;10.00;99.90
25138;DHT22;13112;50.986;4.354;2023-03-18T05:01:08;10.00;99.90
25138;DHT22;13112;50.986;4.354;2023-03-18T05:03:35;10.00;99.90
25138;DHT22;13112;50.986;4.354;2023-03-18T05:06:01;10.00;99.90
25138;DHT22;13112;50.986;4.354;2023-03-18T05:08:26;10.00;99.90
25138;DHT22;13112;50.986;4.354;2023-03-18T05:10:52;9.90;99.90
25138;DHT22;13112;50.986;4.354;2023-03-18T05:13:18;9.90;99.90
25138;DHT22;13112;50.986;4.354;2023-03-18T05:15:44;9.80;99.90
25138;DHT22;13112;50.986;4.354;2023-03-18T05:18:10;9.80;99.90
25138;DHT22;13112;50.986;4.354;2023-03-18T05:20:37;9.80;99.90
25138;DHT22;13112;50.986;4.354;2023-03-18T05:23:04;9.70;99.90
25138;DHT22;13112;50.986;4.354;2023-03-18T05:25:30;9.70;99.90
25138;DHT22;13112;50.986;4.354;2023-03-18T05:27:56;9.70;99.90
25138;DHT22;13112;50.986;4.354;2023-03-18T05:30:22;9.70;99.90
25138;DHT22;13112;50.986;4.354;2023-03-18T05:32:48;9.70;99.90
25138;DHT22;13112;50.986;4.354;2023-03-18T05:35:14;9.70;99.90
25138;DHT22;13112;50.986;4.354;2023-03-18T05:37:40;9.70;99.90
25138;DHT22;13112;50.986;4.354;2023-03-18T05:40:08;9.60;99.90
25138;DHT22;13112;50.986;4.354;2023-03-18T05:42:36;9.70;99.90
25138;DHT22;13112;50.986;4.354;2023-03-18T05:45:03;9.60;99.90
25138;DHT22;13112;50.986;4.354;2023-03-18T05:47:30;9.70;99.90
25138;DHT22;13112;50.986;4.354;2023-03-18T05:49:56;9.70;99.90
25138;DHT22;13112;50.986;4.354;2023-03-18T05:52:22;9.70;99.90
25138;DHT22;13112;50.986;4.354;2023-03-18T05:54:47;9.60;99.90
25138;DHT22;13112;50.986;4.354;2023-03-18T05:57:14;9.60;99.90
25138;DHT22;13112;50.986;4.354;2023-03-18T05:59:40;9.60;99.90
25138;DHT22;13112;50.986;4.354;2023-03-18T06:02:05;9.60;99.90
25138;DHT22;13112;50.986;4.354;2023-03-18T06:04:31;9.60;99.90
25138;DHT22;13112;50.986;4.354;2023-03-18T06:06:57;9.60;99.90
25138;DHT22;13112;50.986;4.354;2023-03-18T06:09:23;9.70;99.90
25138;DHT22;13112;50.986;4.354;2023-03-18T06:11:50;9.70;99.90
25138;DHT22;13112;50.986;4.354;2023-03-18T06:14:16;9.70;99.90
25138;DHT22;13112;50.986;4.354;2023-03-18T06:16:43;9.80;99.90
25138;DHT22;13112;50.986;4.354;2023-03-18T06:19:09;9.70;99.90
25138;DHT22;13112;50.986;4.354;2023-03-18T06:21:37;9.70;99.90
25138;DHT22;13112;50.986;4.354;2023-03-18T06:24:03;9.70;99.90
25138;DHT22;13112;50.986;4.354;2023-03-18T06:26:28;9.70;99.90
25138;DHT22;13112;50.986;4.354;2023-03-18T06:28:54;9.70;99.90
25138;DHT22;13112;50.986;4.354;2023-03-18T06:31:20;9.70;99.90
25138;DHT22;13112;50.986;4.354;2023-03-18T06:33:46;9.80;99.90
25138;DHT22;13112;50.986;4.354;2023-03-18T06:36:12;9.80;99.90
25138;DHT22;13112;50.986;4.354;2023-03-18T06:38:41;9.90;99.90
25138;DHT22;13112;50.986;4.354;2023-03-18T06:41:06;9.90;99.90
25138;DHT22;13112;50.986;4.354;2023-03-18T06:43:33;9.90;99.90
25138;DHT22;13112;50.986;4.354;2023-03-18T06:46:00;10.00;99.90
25138;DHT22;13112;50.986;4.354;2023-03-18T06:48:26;10.10;99.90
25138;DHT22;13112;50.986;4.354;2023-03-18T06:50:53;10.20;99.90
25138;DHT22;13112;50.986;4.354;2023-03-18T06:53:18;10.30;99.90
25138;DHT22;13112;50.986;4.354;2023-03-18T06:55:44;10.60;99.90
25138;DHT22;13112;50.986;4.354;2023-03-18T06:58:10;11.10;99.90
25138;DHT22;13112;50.986;4.354;2023-03-18T07:00:36;11.70;99.90
25138;DHT22;13112;50.986;4.354;2023-03-18T07:03:02;12.10;99.90
25138;DHT22;13112;50.986;4.354;2023-03-18T07:05:29;12.20;99.90
25138;DHT22;13112;50.986;4.354;2023-03-18T07:07:55;12.40;99.90
25138;DHT22;13112;50.986;4.354;2023-03-18T07:10:23;12.60;99.90
25138;DHT22;13112;50.986;4.354;2023-03-18T07:12:50;12.80;99.90
25138;DHT22;13112;50.986;4.354;2023-03-18T07:15:17;13.00;99.90
25138;DHT22;13112;50.986;4.354;2023-03-18T07:17:45;13.10;99.90
25138;DHT22;13112;50.986;4.354;2023-03-18T07:20:13;13.00;99.90
25138;DHT22;13112;50.986;4.354;2023-03-18T07:22:41;13.20;99.90
25138;DHT22;13112;50.986;4.354;2023-03-18T07:25:08;13.50;99.90
25138;DHT22;13112;50.986;4.354;2023-03-18T07:27:34;13.40;99.90
25138;DHT22;13112;50.986;4.354;2023-03-18T07:30:00;13.30;99.90
25138;DHT22;13112;50.986;4.354;2023-03-18T07:32:26;13.40;99.90
25138;DHT22;13112;50.986;4.354;2023-03-18T07:34:54;13.40;99.90
25138;DHT22;13112;50.986;4.354;2023-03-18T07:37:22;13.70;99.90
25138;DHT22;13112;50.986;4.354;2023-03-18T07:39:48;13.60;99.90
25138;DHT22;13112;50.986;4.354;2023-03-18T07:42:13;13.80;99.90
25138;DHT22;13112;50.986;4.354;2023-03-18T07:44:39;13.70;99.90
25138;DHT22;13112;50.986;4.354;2023-03-18T07:47:05;13.90;99.90
25138;DHT22;13112;50.986;4.354;2023-03-18T07:49:31;13.80;99.90
25138;DHT22;13112;50.986;4.354;2023-03-18T07:51:57;13.40;99.90
25138;DHT22;13112;50.986;4.354;2023-03-18T07:54:23;12.90;99.90
25138;DHT22;13112;50.986;4.354;2023-03-18T07:56:50;12.70;99.90
25138;DHT22;13112;50.986;4.354;2023-03-18T07:59:16;12.60;99.90
25138;DHT22;13112;50.986;4.354;2023-03-18T08:01:42;12.80;99.90
25138;DHT22;13112;50.986;4.354;2023-03-18T08:04:08;13.00;99.90
25138;DHT22;13112;50.986;4.354;2023-03-18T08:06:35;13.30;99.90
25138;DHT22;13112;50.986;4.354;2023-03-18T08:09:02;13.60;99.90
25138;DHT22;13112;50.986;4.354;2023-03-18T08:11:28;14.10;99.90
25138;DHT22;13112;50.986;4.354;2023-03-18T08:13:54;14.50;99.90
25138;DHT22;13112;50.986;4.354;2023-03-18T08:16:20;14.90;99.90
25138;DHT22;13112;50.986;4.354;2023-03-18T08:18:47;15.80;99.90
25138;DHT22;13112;50.986;4.354;2023-03-18T08:21:13;16.60;99.90
25138;DHT22;13112;50.986;4.354;2023-03-18T08:23:38;15.70;99.90
25138;DHT22;13112;50.986;4.354;2023-03-18T08:26:05;14.60;99.90
25138;DHT22;13112;50.986;4.354;2023-03-18T08:28:32;13.90;99.90
25138;DHT22;13112;50.986;4.354;2023-03-18T08:30:58;13.80;99.90
25138;DHT22;13112;50.986;4.354;2023-03-18T08:33:24;13.40;99.90
25138;DHT22;13112;50.986;4.354;2023-03-18T08:35:52;13.20;99.90
25138;DHT22;13112;50.986;4.354;2023-03-18T08:38:18;13.20;99.90
25138;DHT22;13112;50.986;4.354;2023-03-18T08:40:44;13.10;99.90
25138;DHT22;13112;50.986;4.354;2023-03-18T08:43:11;13.20;99.90
25138;DHT22;13112;50.986;4.354;2023-03-18T08:45:36;13.10;99.90
25138;DHT22;13112;50.986;4.354;2023-03-18T08:48:03;12.90;99.90
25138;DHT22;13112;50.986;4.354;2023-03-18T08:50:29;13.00;99.90
25138;DHT22;13112;50.986;4.354;2023-03-18T08:52:56;13.00;99.90
25138;DHT22;13112;50.986;4.354;2023-03-18T08:55:26;13.00;99.90
25138;DHT22;13112;50.986;4.354;2023-03-18T08:57:52;13.00;99.90
25138;DHT22;13112;50.986;4.354;2023-03-18T09:00:19;12.90;99.90
25138;DHT22;13112;50.986;4.354;2023-03-18T09:02:46;12.90;99.90
25138;DHT22;13112;50.986;4.354;2023-03-18T09:05:12;13.10;99.90
25138;DHT22;13112;50.986;4.354;2023-03-18T09:07:38;13.40;99.90
25138;DHT22;13112;50.986;4.354;2023-03-18T09:10:05;13.40;99.90
25138;DHT22;13112;50.986;4.354;2023-03-18T09:12:30;13.40;99.90
25138;DHT22;13112;50.986;4.354;2023-03-18T09:14:56;13.30;99.90
25138;DHT22;13112;50.986;4.354;2023-03-18T09:17:22;13.20;99.90
25138;DHT22;13112;50.986;4.354;2023-03-18T09:19:48;12.90;99.90
25138;DHT22;13112;50.986;4.354;2023-03-18T09:22:13;12.90;99.90
25138;DHT22;13112;50.986;4.354;2023-03-18T09:24:39;13.10;99.90
25138;DHT22;13112;50.986;4.354;2023-03-18T09:27:06;13.30;99.90
25138;DHT22;13112;50.986;4.354;2023-03-18T09:29:31;13.50;99.90
25138;DHT22;13112;50.986;4.354;2023-03-18T09:31:57;13.80;99.90
25138;DHT22;13112;50.986;4.354;2023-03-18T09:34:23;13.70;99.90
25138;DHT22;13112;50.986;4.354;2023-03-18T09:36:49;13.50;99.90
25138;DHT22;13112;50.986;4.354;2023-03-18T09:39:17;13.60;99.90
25138;DHT22;13112;50.986;4.354;2023-03-18T09:44:22;13.30;99.90
25138;DHT22;13112;50.986;4.354;2023-03-18T09:47:48;13.30;99.90
25138;DHT22;13112;50.986;4.354;2023-03-18T09:52:43;13.40;99.90
25138;DHT22;13112;50.986;4.354;2023-03-18T09:58:14;13.90;99.90
25138;DHT22;13112;50.986;4.354;2023-03-18T10:00:42;14.30;99.90
25138;DHT22;13112;50.986;4.354;2023-03-18T10:05:42;13.80;99.90
25138;DHT22;13112;50.986;4.354;2023-03-18T10:11:04;13.40;99.90
25138;DHT22;13112;50.986;4.354;2023-03-18T10:13:36;13.30;99.90
25138;DHT22;13112;50.986;4.354;2023-03-18T10:16:04;13.40;99.90
25138;DHT22;13112;50.986;4.354;2023-03-18T10:18:40;13.40;99.90
25138;DHT22;13112;50.986;4.354;2023-03-18T10:23:48;13.40;99.90
25138;DHT22;13112;50.986;4.354;2023-03-18T10:26:21;13.50;99.90
25138;DHT22;13112;50.986;4.354;2023-03-18T10:34:28;13.30;99.90
25138;DHT22;13112;50.986;4.354;2023-03-18T10:39:36;13.40;99.90
25138;DHT22;13112;50.986;4.354;2023-03-18T10:42:21;13.30;99.90
25138;DHT22;13112;50.986;4.354;2023-03-18T10:44:49;13.40;99.90
25138;DHT22;13112;50.986;4.354;2023-03-18T10:47:26;13.40;99.90
25138;DHT22;13112;50.986;4.354;2023-03-18T10:50:22;13.30;99.90
25138;DHT22;13112;50.986;4.354;2023-03-18T10:52:58;13.40;99.90
25138;DHT22;13112;50.986;4.354;2023-03-18T10:55:31;13.50;99.90
25138;DHT22;13112;50.986;4.354;2023-03-18T10:58:06;13.80;99.90
25138;DHT22;13112;50.986;4.354;2023-03-18T11:00:37;14.50;99.90
25138;DHT22;13112;50.986;4.354;2023-03-18T11:03:03;14.50;99.90
25138;DHT22;13112;50.986;4.354;2023-03-18T11:05:40;14.90;99.90
25138;DHT22;13112;50.986;4.354;2023-03-18T11:11:47;15.10;99.90
25138;DHT22;13112;50.986;4.354;2023-03-18T11:13:56;16.20;99.90
25138;DHT22;13112;50.986;4.354;2023-03-18T11:16:27;17.40;99.90
25138;DHT22;13112;50.986;4.354;2023-03-18T11:18:56;18.10;99.90
25138;DHT22;13112;50.986;4.354;2023-03-18T11:21:24;17.70;99.90
25138;DHT22;13112;50.986;4.354;2023-03-18T11:23:59;17.50;99.90
25138;DHT22;13112;50.986;4.354;2023-03-18T11:26:54;16.90;99.90
25138;DHT22;13112;50.986;4.354;2023-03-18T11:29:24;16.60;99.90
25138;DHT22;13112;50.986;4.354;2023-03-18T11:31:55;16.20;99.90
25138;DHT22;13112;50.986;4.354;2023-03-18T11:34:30;15.90;99.90
25138;DHT22;13112;50.986;4.354;2023-03-18T11:36:59;16.00;99.90
25138;DHT22;13112;50.986;4.354;2023-03-18T11:39:28;17.20;99.90
25138;DHT22;13112;50.986;4.354;2023-03-18T11:41:57;17.80;99.90
25138;DHT22;13112;50.986;4.354;2023-03-18T11:44:27;17.70;99.90
25138;DHT22;13112;50.986;4.354;2023-03-18T11:47:09;17.50;99.90
25138;DHT22;13112;50.986;4.354;2023-03-18T11:49:37;17.90;99.90
25138;DHT22;13112;50.986;4.354;2023-03-18T12:03:32;16.50;99.90
25138;DHT22;13112;50.986;4.354;2023-03-18T12:14:15;17.40;99.90
25138;DHT22;13112;50.986;4.354;2023-03-18T12:16:57;18.00;99.90
25138;DHT22;13112;50.986;4.354;2023-03-18T12:24:46;19.20;99.90
25138;DHT22;13112;50.986;4.354;2023-03-18T12:27:36;18.50;99.90
25138;DHT22;13112;50.986;4.354;2023-03-18T12:41:54;17.60;99.90
25138;DHT22;13112;50.986;4.354;2023-03-18T12:49:45;19.30;99.90
25138;DHT22;13112;50.986;4.354;2023-03-18T12:52:34;18.80;99.90
25138;DHT22;13112;50.986;4.354;2023-03-18T12:58:26;18.80;99.90
25138;DHT22;13112;50.986;4.354;2023-03-18T13:03:41;19.00;99.90
25138;DHT22;13112;50.986;4.354;2023-03-18T13:06:12;18.60;99.90
25138;DHT22;13112;50.986;4.354;2023-03-18T13:11:35;17.70;99.90
25138;DHT22;13112;50.986;4.354;2023-03-18T13:17:14;18.30;99.90
25138;DHT22;13112;50.986;4.354;2023-03-18T13:19:42;17.40;99.90
25138;DHT22;13112;50.986;4.354;2023-03-18T13:24:53;21.80;99.90
25138;DHT22;13112;50.986;4.354;2023-03-18T13:33:08;17.80;99.90
25138;DHT22;13112;50.986;4.354;2023-03-18T13:38:59;20.20;99.90
25138;DHT22;13112;50.986;4.354;2023-03-18T13:44:28;21.10;99.90
25138;DHT22;13112;50.986;4.354;2023-03-18T13:47:01;22.90;99.90
25138;DHT22;13112;50.986;4.354;2023-03-18T13:49:30;22.20;99.90
25138;DHT22;13112;50.986;4.354;2023-03-18T13:52:01;22.30;99.90
25138;DHT22;13112;50.986;4.354;2023-03-18T13:54:34;20.70;99.90
25138;DHT22;13112;50.986;4.354;2023-03-18T14:00:23;20.60;99.90
25138;DHT22;13112;50.986;4.354;2023-03-18T14:05:44;21.00;99.90
25138;DHT22;13112;50.986;4.354;2023-03-18T14:08:33;20.90;99.90
25138;DHT22;13112;50.986;4.354;2023-03-18T14:13:58;21.90;99.90
25138;DHT22;13112;50.986;4.354;2023-03-18T14:22:29;18.10;99.90
25138;DHT22;13112;50.986;4.354;2023-03-18T14:25:21;18.10;99.90
25138;DHT22;13112;50.986;4.354;2023-03-18T14:27:53;18.90;99.90
25138;DHT22;13112;50.986;4.354;2023-03-18T14:33:05;18.20;99.90
25138;DHT22;13112;50.986;4.354;2023-03-18T14:36:08;19.50;99.90
25138;DHT22;13112;50.986;4.354;2023-03-18T14:39:00;20.40;99.90
25138;DHT22;13112;50.986;4.354;2023-03-18T14:41:40;18.80;99.90
25138;DHT22;13112;50.986;4.354;2023-03-18T14:46:41;17.20;99.90
25138;DHT22;13112;50.986;4.354;2023-03-18T14:52:35;17.30;99.90
25138;DHT22;13112;50.986;4.354;2023-03-18T14:55:24;17.20;99.90
25138;DHT22;13112;50.986;4.354;2023-03-18T14:57:50;17.20;99.90
25138;DHT22;13112;50.986;4.354;2023-03-18T15:00:18;17.10;99.90
25138;DHT22;13112;50.986;4.354;2023-03-18T15:02:51;17.10;99.90
25138;DHT22;13112;50.986;4.354;2023-03-18T15:05:23;17.10;99.90
25138;DHT22;13112;50.986;4.354;2023-03-18T15:07:51;17.30;99.90
25138;DHT22;13112;50.986;4.354;2023-03-18T15:10:29;17.00;99.90
25138;DHT22;13112;50.986;4.354;2023-03-18T15:13:09;16.60;99.90
25138;DHT22;13112;50.986;4.354;2023-03-18T15:15:36;16.50;99.90
25138;DHT22;13112;50.986;4.354;2023-03-18T15:18:17;16.50;99.90
25138;DHT22;13112;50.986;4.354;2023-03-18T15:20:47;16.60;99.90
25138;DHT22;13112;50.986;4.354;2023-03-18T15:23:14;16.80;99.90
25138;DHT22;13112;50.986;4.354;2023-03-18T15:25:42;17.00;99.90
25138;DHT22;13112;50.986;4.354;2023-03-18T15:28:17;17.20;99.90
25138;DHT22;13112;50.986;4.354;2023-03-18T15:30:51;17.00;99.90
25138;DHT22;13112;50.986;4.354;2023-03-18T15:33:26;16.80;99.90
25138;DHT22;13112;50.986;4.354;2023-03-18T15:36:01;16.90;99.90
25138;DHT22;13112;50.986;4.354;2023-03-18T15:38:29;16.80;99.90
25138;DHT22;13112;50.986;4.354;2023-03-18T15:41:09;16.70;99.90
25138;DHT22;13112;50.986;4.354;2023-03-18T15:43:44;16.60;99.90
25138;DHT22;13112;50.986;4.354;2023-03-18T15:46:29;16.50;99.90
25138;DHT22;13112;50.986;4.354;2023-03-18T15:48:56;16.40;99.90
25138;DHT22;13112;50.986;4.354;2023-03-18T15:51:28;16.40;99.90
25138;DHT22;13112;50.986;4.354;2023-03-18T15:54:03;16.30;99.90
25138;DHT22;13112;50.986;4.354;2023-03-18T15:56:31;16.40;99.90
25138;DHT22;13112;50.986;4.354;2023-03-18T15:59:11;16.30;99.90
25138;DHT22;13112;50.986;4.354;2023-03-18T16:01:38;16.30;99.90
25138;DHT22;13112;50.986;4.354;2023-03-18T16:04:13;16.40;99.90
25138;DHT22;13112;50.986;4.354;2023-03-18T16:06:39;16.30;99.90
25138;DHT22;13112;50.986;4.354;2023-03-18T16:09:18;16.30;99.90
25138;DHT22;13112;50.986;4.354;2023-03-18T16:11:54;16.40;99.90
25138;DHT22;13112;50.986;4.354;2023-03-18T16:14:29;16.40;99.90
25138;DHT22;13112;50.986;4.354;2023-03-18T16:17:00;16.30;99.90
25138;DHT22;13112;50.986;4.354;2023-03-18T16:19:27;16.10;99.90
25138;DHT22;13112;50.986;4.354;2023-03-18T16:21:55;16.10;99.90
25138;DHT22;13112;50.986;4.354;2023-03-18T16:24:22;16.10;99.90
25138;DHT22;13112;50.986;4.354;2023-03-18T16:26:49;16.00;99.90
25138;DHT22;13112;50.986;4.354;2023-03-18T16:29:35;16.10;99.90
25138;DHT22;13112;50.986;4.354;2023-03-18T16:32:03;16.10;99.90
25138;DHT22;13112;50.986;4.354;2023-03-18T16:34:29;16.10;99.90
25138;DHT22;13112;50.986;4.354;2023-03-18T16:36:55;16.10;99.90
25138;DHT22;13112;50.986;4.354;2023-03-18T16:39:23;16.10;99.90
25138;DHT22;13112;50.986;4.354;2023-03-18T16:41:51;16.10;99.90
25138;DHT22;13112;50.986;4.354;2023-03-18T16:44:19;16.10;99.90
25138;DHT22;13112;50.986;4.354;2023-03-18T16:46:48;16.00;99.90
25138;DHT22;13112;50.986;4.354;2023-03-18T16:49:21;15.90;99.90
25138;DHT22;13112;50.986;4.354;2023-03-18T16:51:48;15.90;99.90
25138;DHT22;13112;50.986;4.354;2023-03-18T16:54:25;15.90;99.90
25138;DHT22;13112;50.986;4.354;2023-03-18T16:56:54;15.90;99.90
25138;DHT22;13112;50.986;4.354;2023-03-18T16:59:22;15.90;99.90
25138;DHT22;13112;50.986;4.354;2023-03-18T17:01:49;15.80;99.90
25138;DHT22;13112;50.986;4.354;2023-03-18T17:04:28;15.80;99.90
25138;DHT22;13112;50.986;4.354;2023-03-18T17:07:00;15.80;99.90
25138;DHT22;13112;50.986;4.354;2023-03-18T17:09:26;15.80;99.90
25138;DHT22;13112;50.986;4.354;2023-03-18T17:12:02;15.80;99.90
25138;DHT22;13112;50.986;4.354;2023-03-18T17:14:41;15.70;99.90
25138;DHT22;13112;50.986;4.354;2023-03-18T17:19:42;15.70;99.90
25138;DHT22;13112;50.986;4.354;2023-03-18T17:22:23;15.60;99.90
25138;DHT22;13112;50.986;4.354;2023-03-18T17:24:50;15.60;99.90
25138;DHT22;13112;50.986;4.354;2023-03-18T17:27:37;15.70;99.90
25138;DHT22;13112;50.986;4.354;2023-03-18T17:30:18;15.30;99.90
25138;DHT22;13112;50.986;4.354;2023-03-18T17:32:45;13.60;99.90
25138;DHT22;13112;50.986;4.354;2023-03-18T17:35:21;12.20;99.90
25138;DHT22;13112;50.986;4.354;2023-03-18T17:37:48;11.60;99.90
25138;DHT22;13112;50.986;4.354;2023-03-18T17:40:16;11.50;99.90
25138;DHT22;13112;50.986;4.354;2023-03-18T17:42:42;11.30;99.90
25138;DHT22;13112;50.986;4.354;2023-03-18T17:45:29;11.10;99.90
25138;DHT22;13112;50.986;4.354;2023-03-18T17:48:14;11.00;99.90
25138;DHT22;13112;50.986;4.354;2023-03-18T17:50:41;11.00;99.90
25138;DHT22;13112;50.986;4.354;2023-03-18T17:53:32;11.00;99.90
25138;DHT22;13112;50.986;4.354;2023-03-18T17:55:59;11.00;99.90
25138;DHT22;13112;50.986;4.354;2023-03-18T17:58:28;10.90;99.90
25138;DHT22;13112;50.986;4.354;2023-03-18T18:01:03;10.90;99.90